createdAt,value
2022-11-22T00:00:25.329Z,3.97
2022-11-22T00:02:52.227Z,4.18
2022-11-22T00:05:19.192Z,5.20
2022-11-22T00:07:46.312Z,4.65
2022-11-22T00:10:14.116Z,4.10
2022-11-22T00:12:41.734Z,4.88
2022-11-22T00:15:09.742Z,4.15
2022-11-22T00:17:36.570Z,4.93
2022-11-22T00:20:04.672Z,4.45
2022-11-22T00:22:32.539Z,5.45
2022-11-22T00:24:59.304Z,4.35
2022-11-22T00:27:26.311Z,4.32
2022-11-22T00:29:53.204Z,4.50
2022-11-22T00:32:20.031Z,5.28
2022-11-22T00:34:46.737Z,5.18
2022-11-22T00:37:13.545Z,4.95
2022-11-22T00:39:40.291Z,5.35
2022-11-22T00:42:07.010Z,5.22
2022-11-22T00:44:33.825Z,5.30
2022-11-22T00:47:00.575Z,5.55
2022-11-22T00:49:27.858Z,6.57
2022-11-22T00:51:54.763Z,6.18
2022-11-22T00:54:21.521Z,7.60
2022-11-22T00:56:48.205Z,10.10
2022-11-22T00:59:14.962Z,6.53
2022-11-22T01:01:41.876Z,7.68
2022-11-22T01:04:08.715Z,6.22
2022-11-22T01:06:35.770Z,7.70
2022-11-22T01:09:02.659Z,7.13
2022-11-22T01:11:29.491Z,6.65
2022-11-22T01:13:56.340Z,8.30
2022-11-22T01:16:23.081Z,6.47
2022-11-22T01:18:49.813Z,7.82
2022-11-22T01:21:16.608Z,6.63
2022-11-22T01:23:43.340Z,6.47
2022-11-22T01:26:10.173Z,8.32
2022-11-22T01:28:37.137Z,7.90
2022-11-22T01:31:04.954Z,7.90
2022-11-22T01:33:31.773Z,7.00
2022-11-22T01:35:58.648Z,6.60
2022-11-22T01:38:25.775Z,6.97
2022-11-22T01:40:53.453Z,8.07
2022-11-22T01:43:25.294Z,7.07
2022-11-22T01:45:57.123Z,6.25
2022-11-22T01:48:31.989Z,6.38
2022-11-22T01:51:22.528Z,6.18
2022-11-22T01:53:49.707Z,7.28
2022-11-22T01:56:20.748Z,6.57
2022-11-22T01:58:53.287Z,7.20
2022-11-22T02:01:20.547Z,6.93
2022-11-22T02:03:49.833Z,8.55
2022-11-22T02:06:18.177Z,6.47
2022-11-22T02:09:12.649Z,7.28
2022-11-22T02:11:46.058Z,7.53
2022-11-22T02:14:13.363Z,8.88
2022-11-22T02:16:41.759Z,7.07
2022-11-22T02:19:15.866Z,8.68
2022-11-22T02:21:44.771Z,8.10
2022-11-22T02:24:21.745Z,7.40
2022-11-22T02:26:48.524Z,7.43
2022-11-22T02:29:15.914Z,8.32
2022-11-22T02:31:46.010Z,7.63
2022-11-22T02:34:13.784Z,8.43
2022-11-22T02:36:48.749Z,9.77
2022-11-22T02:39:19.795Z,9.50
2022-11-22T02:41:47.670Z,9.52
2022-11-22T02:44:15.478Z,8.98
2022-11-22T02:46:54.046Z,9.70
2022-11-22T02:49:23.028Z,11.80
2022-11-22T02:51:51.201Z,12.57
2022-11-22T02:54:18.446Z,10.65
2022-11-22T02:56:45.288Z,9.85
2022-11-22T02:59:12.046Z,11.32
2022-11-22T03:01:38.920Z,13.10
2022-11-22T03:04:05.725Z,10.20
2022-11-22T03:06:32.584Z,12.65
2022-11-22T03:08:59.342Z,12.30
2022-11-22T03:11:26.222Z,13.00
2022-11-22T03:13:52.983Z,13.10
2022-11-22T03:16:19.748Z,13.15
2022-11-22T03:18:46.510Z,12.23
2022-11-22T03:21:13.217Z,15.18
2022-11-22T03:23:39.993Z,10.70
2022-11-22T03:26:11.231Z,12.60
2022-11-22T03:28:38.167Z,14.45
2022-11-22T03:31:06.414Z,12.57
2022-11-22T03:33:34.183Z,12.15
2022-11-22T03:36:01.384Z,13.98
2022-11-22T03:38:28.156Z,10.70
2022-11-22T03:40:54.962Z,13.32
2022-11-22T03:43:22.308Z,12.48
2022-11-22T03:45:49.153Z,11.55
2022-11-22T03:48:15.894Z,12.48
2022-11-22T03:50:42.680Z,10.85
2022-11-22T03:53:09.460Z,12.18
2022-11-22T03:55:36.343Z,10.38
2022-11-22T03:58:03.873Z,10.38
2022-11-22T04:00:31.335Z,11.40
2022-11-22T04:02:58.260Z,11.65
2022-11-22T04:05:25.048Z,10.00
2022-11-22T04:07:57.156Z,12.50
2022-11-22T04:10:25.342Z,11.40
2022-11-22T04:12:56.223Z,9.50
2022-11-22T04:15:22.962Z,9.73
2022-11-22T04:17:49.745Z,11.35
2022-11-22T04:20:40.888Z,8.73
2022-11-22T04:23:09.895Z,11.40
2022-11-22T04:25:39.244Z,11.73
2022-11-22T04:28:07.831Z,11.30
2022-11-22T04:30:53.571Z,11.05
2022-11-22T04:33:20.597Z,11.63
2022-11-22T04:35:48.183Z,12.50
2022-11-22T04:38:16.050Z,10.00
2022-11-22T04:40:43.619Z,11.80
2022-11-22T04:43:37.551Z,11.60
2022-11-22T04:46:04.321Z,11.55
2022-11-22T04:48:31.092Z,11.52
2022-11-22T04:51:16.759Z,11.50
2022-11-22T04:53:44.470Z,10.27
2022-11-22T04:56:12.248Z,11.82
2022-11-22T04:58:39.332Z,14.35
2022-11-22T05:01:06.674Z,13.40
2022-11-22T05:03:33.567Z,12.90
2022-11-22T05:06:05.505Z,13.68
2022-11-22T05:08:32.426Z,13.48
2022-11-22T05:11:01.800Z,12.80
2022-11-22T05:13:41.651Z,13.30
2022-11-22T05:16:10.975Z,14.00
2022-11-22T05:18:37.966Z,14.45
2022-11-22T05:21:13.129Z,13.45
2022-11-22T05:23:55.454Z,12.23
2022-11-22T05:26:31.497Z,13.65
2022-11-22T05:31:27.565Z,14.20
2022-11-22T05:33:56.659Z,13.18
2022-11-22T05:36:24.373Z,14.88
2022-11-22T05:38:51.318Z,12.98
2022-11-22T05:41:18.938Z,14.85
2022-11-22T05:43:45.899Z,14.90
2022-11-22T05:46:23.836Z,17.17
2022-11-22T05:48:52.304Z,15.55
2022-11-22T05:51:21.523Z,14.52
2022-11-22T05:53:48.765Z,15.85
2022-11-22T05:56:17.950Z,13.82
2022-11-22T05:58:44.823Z,15.52
2022-11-22T06:01:18.236Z,16.23
2022-11-22T06:03:45.440Z,15.05
2022-11-22T06:06:12.725Z,12.90
2022-11-22T06:08:41.280Z,18.08
2022-11-22T06:11:15.977Z,14.77
2022-11-22T06:13:46.548Z,13.30
2022-11-22T06:16:14.411Z,14.00
2022-11-22T06:18:41.559Z,14.32
2022-11-22T06:21:12.067Z,13.15
2022-11-22T06:23:38.963Z,15.80
2022-11-22T06:26:08.484Z,14.02
2022-11-22T06:28:37.244Z,13.98
2022-11-22T06:31:05.682Z,13.60
2022-11-22T06:33:33.159Z,13.15
2022-11-22T06:36:07.739Z,17.55
2022-11-22T06:38:34.659Z,17.73
2022-11-22T06:41:06.598Z,20.15
2022-11-22T06:43:34.720Z,17.08
2022-11-22T06:46:04.002Z,18.60
2022-11-22T06:48:32.128Z,15.73
2022-11-22T06:51:03.716Z,21.50
2022-11-22T06:53:46.960Z,21.50
2022-11-22T06:56:16.761Z,20.92
2022-11-22T06:58:44.260Z,19.25
2022-11-22T07:01:16.999Z,15.05
2022-11-22T07:03:44.344Z,13.98
2022-11-22T07:06:12.972Z,16.67
2022-11-22T07:08:40.703Z,17.55
2022-11-22T07:11:10.393Z,16.60
2022-11-22T07:13:37.840Z,17.90
2022-11-22T07:16:07.033Z,16.23
2022-11-22T07:18:34.427Z,17.45
2022-11-22T07:21:12.148Z,18.15
2022-11-22T07:23:41.656Z,15.32
2022-11-22T07:26:08.605Z,16.45
2022-11-22T07:28:35.381Z,18.33
2022-11-22T07:31:04.482Z,13.80
2022-11-22T07:33:31.634Z,16.58
2022-11-22T07:36:13.316Z,16.83
2022-11-22T07:38:40.224Z,16.83
2022-11-22T07:41:08.211Z,17.73
2022-11-22T07:43:35.226Z,17.67
2022-11-22T07:46:19.244Z,15.35
2022-11-22T07:48:47.195Z,17.42
2022-11-22T07:51:13.972Z,14.88
2022-11-22T07:53:40.736Z,18.58
2022-11-22T07:56:08.130Z,15.05
2022-11-22T07:58:35.448Z,16.30
2022-11-22T08:01:13.684Z,18.35
2022-11-22T08:03:41.329Z,16.20
2022-11-22T08:06:09.787Z,15.05
2022-11-22T08:08:37.482Z,15.48
2022-11-22T08:11:05.280Z,17.02
2022-11-22T08:13:32.939Z,16.80
2022-11-22T08:16:18.456Z,17.60
2022-11-22T08:18:49.300Z,16.60
2022-11-22T08:21:17.758Z,18.55
2022-11-22T08:23:46.162Z,16.75
2022-11-22T08:26:15.611Z,24.92
2022-11-22T08:28:43.587Z,15.10
2022-11-22T08:31:13.638Z,15.52
2022-11-22T08:33:41.096Z,13.95
2022-11-22T08:36:08.528Z,16.88
2022-11-22T08:38:36.197Z,15.15
2022-11-22T08:41:04.199Z,16.30
2022-11-22T08:43:31.400Z,16.35
2022-11-22T08:45:59.695Z,16.65
2022-11-22T08:48:27.511Z,16.80
2022-11-22T08:50:57.960Z,15.13
2022-11-22T08:53:25.794Z,15.05
2022-11-22T08:55:53.257Z,14.90
2022-11-22T08:58:20.391Z,14.90
2022-11-22T09:00:47.167Z,14.60
2022-11-22T09:03:13.912Z,14.63
2022-11-22T09:08:29.031Z,16.75
2022-11-22T09:11:03.035Z,14.88
2022-11-22T09:13:30.452Z,15.70
2022-11-22T09:16:12.811Z,15.75
2022-11-22T09:18:39.630Z,15.25
2022-11-22T09:21:09.683Z,15.60
2022-11-22T09:23:36.599Z,17.85
2022-11-22T09:26:04.763Z,15.65
2022-11-22T09:28:31.823Z,17.00
2022-11-22T09:31:02.981Z,14.68
2022-11-22T09:33:31.172Z,16.35
2022-11-22T09:36:09.357Z,14.45
2022-11-22T09:38:37.341Z,15.23
2022-11-22T09:41:24.298Z,14.13
2022-11-22T09:44:28.761Z,13.93
2022-11-22T09:47:03.999Z,15.05
2022-11-22T09:49:31.174Z,15.10
2022-11-22T09:52:51.744Z,15.80
2022-11-22T09:55:29.823Z,16.83
2022-11-22T09:58:10.814Z,14.73
2022-11-22T10:00:37.871Z,15.88
2022-11-22T10:03:16.553Z,19.88
2022-11-22T10:05:51.990Z,15.93
2022-11-22T10:08:21.448Z,15.43
2022-11-22T10:10:53.169Z,17.85
2022-11-22T10:13:25.255Z,18.45
2022-11-22T10:16:09.998Z,14.80
2022-11-22T10:18:51.263Z,15.38
2022-11-22T10:21:19.703Z,15.88
2022-11-22T10:23:47.594Z,15.18
2022-11-22T10:26:27.396Z,16.00
2022-11-22T10:29:08.624Z,14.48
2022-11-22T10:31:55.666Z,14.05
2022-11-22T10:34:42.321Z,15.15
2022-11-22T10:37:24.619Z,15.82
2022-11-22T10:40:08.928Z,14.80
2022-11-22T10:43:02.273Z,15.77
2022-11-22T10:45:42.551Z,14.45
2022-11-22T10:48:18.193Z,14.98
2022-11-22T10:51:06.052Z,16.67
2022-11-22T10:53:58.854Z,13.57
2022-11-22T10:56:54.266Z,11.65
2022-11-22T10:59:38.713Z,15.13
2022-11-22T11:02:29.603Z,15.07
2022-11-22T11:04:57.663Z,14.40
2022-11-22T11:07:25.559Z,16.67
2022-11-22T11:10:22.275Z,15.10
2022-11-22T11:13:11.696Z,18.98
2022-11-22T11:15:43.781Z,17.08
2022-11-22T11:18:30.764Z,14.93
2022-11-22T11:20:57.579Z,16.35
2022-11-22T11:23:24.372Z,17.08
2022-11-22T11:25:52.470Z,17.60
2022-11-22T11:28:19.479Z,17.30
2022-11-22T11:31:18.529Z,19.17
2022-11-22T11:33:46.584Z,15.13
2022-11-22T11:36:22.137Z,16.00
2022-11-22T11:38:57.799Z,14.75
2022-11-22T11:41:38.861Z,14.90
2022-11-22T11:44:36.140Z,17.52
2022-11-22T11:47:04.415Z,15.88
2022-11-22T11:49:33.735Z,19.05
2022-11-22T11:52:22.041Z,14.15
2022-11-22T11:54:52.894Z,12.90
2022-11-22T11:57:28.759Z,13.93
2022-11-22T11:59:57.769Z,13.05
2022-11-22T12:02:41.541Z,14.25
2022-11-22T12:05:14.213Z,13.40
2022-11-22T12:07:44.957Z,13.60
2022-11-22T12:11:03.076Z,12.73
2022-11-22T12:14:04.606Z,14.82
2022-11-22T12:16:31.858Z,14.48
2022-11-22T12:19:39.477Z,17.92
2022-11-22T12:22:48.342Z,17.70
2022-11-22T12:25:32.870Z,14.55
2022-11-22T12:28:10.447Z,14.70
2022-11-22T12:30:39.456Z,13.70
2022-11-22T12:33:10.905Z,17.35
2022-11-22T12:35:43.874Z,17.48
2022-11-22T12:38:25.340Z,18.52
2022-11-22T12:40:56.403Z,17.98
2022-11-22T12:43:43.819Z,18.42
2022-11-22T12:48:22.536Z,16.65
2022-11-22T12:49:22.020Z,18.48
2022-11-22T12:51:59.675Z,18.90
2022-11-22T12:55:00.717Z,16.38
2022-11-22T12:57:50.129Z,14.50
2022-11-22T13:00:19.182Z,19.58
2022-11-22T13:03:03.955Z,19.13
2022-11-22T13:05:43.704Z,17.02
2022-11-22T13:08:16.536Z,15.75
2022-11-22T13:11:15.747Z,16.88
2022-11-22T13:13:55.798Z,16.42
2022-11-22T13:16:22.555Z,18.45
2022-11-22T13:18:56.708Z,17.33
2022-11-22T13:21:57.475Z,15.52
2022-11-22T13:24:42.503Z,19.52
2022-11-22T13:27:30.605Z,18.42
2022-11-22T13:30:00.971Z,16.88
2022-11-22T13:32:32.651Z,15.65
2022-11-22T13:35:01.305Z,19.52
2022-11-22T13:37:39.385Z,15.88
2022-11-22T13:40:50.645Z,21.45
2022-11-22T13:43:22.230Z,18.35
2022-11-22T13:45:53.458Z,18.42
2022-11-22T13:48:41.733Z,18.73
2022-11-22T13:51:19.371Z,18.65
2022-11-22T13:53:47.996Z,16.67
2022-11-22T13:56:20.741Z,22.58
2022-11-22T13:59:20.081Z,19.52
2022-11-22T14:01:46.849Z,18.20
2022-11-22T14:04:16.569Z,19.08
2022-11-22T14:06:48.357Z,17.98
2022-11-22T14:09:36.930Z,19.30
2022-11-22T14:12:24.836Z,15.70
2022-11-22T14:14:54.361Z,19.80
2022-11-22T14:17:26.996Z,21.10
2022-11-22T14:20:01.089Z,16.92
2022-11-22T14:22:49.535Z,16.08
2022-11-22T14:25:29.061Z,17.17
2022-11-22T14:28:01.640Z,24.48
2022-11-22T14:30:43.849Z,16.13
2022-11-22T14:33:19.259Z,15.48
2022-11-22T14:36:07.664Z,16.25
2022-11-22T14:38:36.168Z,16.20
2022-11-22T14:41:28.030Z,21.08
2022-11-22T14:44:09.390Z,16.58
2022-11-22T14:46:56.772Z,17.40
2022-11-22T14:49:56.104Z,16.55
2022-11-22T14:52:29.752Z,21.73
2022-11-22T14:55:02.633Z,22.15
2022-11-22T14:57:32.616Z,18.08
2022-11-22T15:00:20.798Z,18.40
2022-11-22T15:03:18.524Z,20.05
2022-11-22T15:09:11.955Z,18.58
2022-11-22T15:09:18.388Z,22.08
2022-11-22T15:11:52.463Z,21.33
2022-11-22T15:14:54.719Z,21.10
2022-11-22T15:57:34.508Z,21.08
2022-11-22T16:00:01.851Z,23.20
2022-11-22T16:02:30.871Z,22.88
2022-11-22T16:06:04.368Z,21.65
2022-11-22T16:07:50.463Z,25.67
2022-11-22T16:10:37.752Z,23.27
2022-11-22T16:13:22.060Z,22.65
2022-11-22T16:16:18.836Z,20.55
2022-11-22T16:18:48.214Z,23.88
2022-11-22T16:21:22.099Z,21.48
2022-11-22T16:24:11.523Z,23.98
2022-11-22T16:26:39.889Z,23.85
2022-11-22T16:29:32.352Z,25.50
2022-11-22T16:32:05.479Z,23.63
2022-11-22T16:34:32.367Z,20.13
2022-11-22T16:36:59.277Z,24.83
2022-11-22T16:39:26.148Z,22.15
2022-11-22T16:41:53.083Z,22.95
2022-11-22T16:44:21.305Z,24.23
2022-11-22T16:46:48.056Z,22.77
2022-11-22T16:49:18.802Z,23.35
2022-11-22T16:51:46.988Z,23.42
2022-11-22T16:54:17.051Z,22.27
2022-11-22T16:56:44.303Z,30.60
2022-11-22T16:59:12.863Z,25.98
2022-11-22T17:01:42.131Z,25.17
2022-11-22T17:04:21.590Z,26.58
2022-11-22T17:06:48.386Z,29.60
2022-11-22T17:09:15.200Z,29.30
2022-11-22T17:11:43.227Z,26.15
2022-11-22T17:14:15.494Z,28.23
2022-11-22T17:16:42.703Z,27.10
2022-11-22T17:19:30.214Z,25.02
2022-11-22T17:21:56.659Z,27.77
2022-11-22T17:24:23.911Z,27.17
2022-11-22T17:26:50.669Z,26.67
2022-11-22T17:32:04.606Z,27.30
2022-11-22T17:34:31.694Z,25.77
2022-11-22T17:36:58.599Z,28.63
2022-11-22T17:39:25.331Z,34.28
2022-11-22T17:41:52.083Z,32.83
2022-11-22T17:44:18.862Z,30.73
2022-11-22T17:46:47.150Z,32.28
2022-11-22T17:49:16.395Z,35.25
2022-11-22T17:51:43.670Z,32.20
2022-11-22T17:54:10.380Z,28.35
2022-11-22T17:56:37.684Z,31.08
2022-11-22T17:59:04.978Z,30.80
2022-11-22T18:01:32.094Z,29.77
2022-11-22T18:03:59.023Z,30.20
2022-11-22T18:06:26.503Z,26.67
2022-11-22T18:08:53.394Z,30.48
2022-11-22T18:11:20.284Z,28.63
2022-11-22T18:13:47.270Z,31.77
2022-11-22T18:16:15.734Z,29.55
2022-11-22T18:18:58.661Z,28.83
2022-11-22T18:21:28.950Z,28.50
2022-11-22T18:23:57.659Z,27.50
2022-11-22T18:26:38.688Z,27.67
2022-11-22T18:31:54.326Z,31.77
2022-11-22T18:34:22.775Z,32.13
2022-11-22T18:36:55.238Z,32.38
2022-11-22T18:39:24.851Z,31.58
2022-11-22T18:41:51.641Z,33.67
2022-11-22T18:44:18.558Z,33.38
2022-11-22T18:46:45.381Z,30.42
2022-11-22T18:49:12.175Z,30.90
2022-11-22T18:51:38.964Z,31.88
2022-11-22T18:54:05.941Z,29.88
2022-11-22T18:56:37.782Z,32.78
2022-11-22T18:59:06.280Z,32.85
2022-11-22T19:01:34.712Z,31.77
2022-11-22T19:04:02.923Z,33.42
2022-11-22T19:06:30.347Z,34.90
2022-11-22T19:08:57.470Z,32.38
2022-11-22T19:11:24.461Z,34.10
2022-11-22T19:13:51.492Z,32.83
2022-11-22T19:16:21.920Z,35.63
2022-11-22T19:18:49.978Z,31.85
2022-11-22T19:21:22.495Z,43.55
2022-11-22T19:23:50.146Z,33.63
2022-11-22T19:26:20.603Z,34.63
2022-11-22T19:28:48.712Z,32.92
2022-11-22T19:31:18.264Z,33.70
2022-11-22T19:33:45.746Z,31.73
2022-11-22T19:36:18.560Z,27.67
2022-11-22T19:38:46.353Z,28.80
2022-11-22T19:41:21.661Z,28.55
2022-11-22T19:43:49.876Z,28.45
2022-11-22T19:46:16.894Z,26.45
2022-11-22T19:48:47.221Z,27.92
2022-11-22T19:51:15.567Z,23.90
2022-11-22T19:53:42.840Z,24.70
2022-11-22T19:56:13.883Z,25.95
2022-11-22T19:58:41.176Z,30.10
2022-11-22T20:01:10.559Z,27.45
2022-11-22T20:03:39.158Z,24.92
2022-11-22T20:06:08.513Z,23.92
2022-11-22T20:08:35.734Z,23.98
2022-11-22T20:11:04.608Z,27.65
2022-11-22T20:13:38.340Z,25.67
2022-11-22T20:16:07.595Z,27.83
2022-11-22T20:18:34.674Z,26.25
2022-11-22T20:21:02.602Z,28.65
2022-11-22T20:23:30.091Z,27.77
2022-11-22T20:26:03.738Z,26.35
2022-11-22T20:28:30.975Z,26.38
2022-11-22T20:31:08.793Z,29.23
2022-11-22T20:33:36.876Z,29.20
2022-11-22T20:36:09.167Z,27.60
2022-11-22T20:38:38.207Z,30.38
2022-11-22T20:41:06.311Z,32.28
2022-11-22T20:43:34.483Z,27.15
2022-11-22T20:46:25.361Z,30.42
2022-11-22T20:48:53.222Z,29.90
2022-11-22T20:51:25.678Z,30.52
2022-11-22T20:53:52.986Z,26.98
2022-11-22T20:56:20.482Z,25.85
2022-11-22T20:58:47.442Z,29.52
2022-11-22T21:01:17.135Z,24.33
2022-11-22T21:03:44.003Z,27.77
2022-11-22T21:06:15.350Z,26.50
2022-11-22T21:08:42.118Z,27.05
2022-11-22T21:11:26.743Z,26.88
2022-11-22T21:13:54.058Z,25.35
2022-11-22T21:16:24.645Z,26.50
2022-11-22T21:18:52.068Z,22.75
2022-11-22T21:21:22.787Z,25.23
2022-11-22T21:23:51.229Z,22.52
2022-11-22T21:26:18.750Z,24.25
2022-11-22T21:28:45.504Z,24.38
2022-11-22T21:31:12.252Z,26.35
2022-11-22T21:33:39.261Z,27.05
2022-11-22T21:36:07.103Z,26.70
2022-11-22T21:38:38.418Z,27.38
2022-11-22T21:41:32.315Z,25.20
2022-11-22T21:43:56.932Z,27.13
2022-11-22T21:46:25.247Z,25.15
2022-11-22T21:48:52.191Z,24.83
2022-11-22T21:51:19.017Z,22.63
2022-11-22T21:53:45.892Z,26.92
2022-11-22T21:56:12.621Z,27.75
2022-11-22T21:58:39.430Z,23.48
2022-11-22T22:01:13.644Z,23.48
2022-11-22T22:03:41.193Z,27.38
2022-11-22T22:06:08.040Z,26.05
2022-11-22T22:08:35.269Z,27.77
2022-11-22T22:11:02.479Z,25.00
2022-11-22T22:13:30.779Z,24.80
2022-11-22T22:15:59.676Z,24.95
2022-11-22T22:18:37.032Z,22.05
2022-11-22T22:21:06.427Z,23.63
2022-11-22T22:23:38.905Z,22.63
2022-11-22T22:26:08.457Z,17.65
2022-11-22T22:28:36.568Z,19.73
2022-11-22T22:31:04.717Z,18.65
2022-11-22T22:33:31.758Z,17.10
2022-11-22T22:35:59.445Z,18.85
2022-11-22T22:38:26.368Z,18.73
2022-11-22T22:40:57.954Z,19.13
2022-11-22T22:43:25.455Z,17.33
2022-11-22T22:45:52.397Z,17.90
2022-11-22T22:48:19.422Z,16.75
2022-11-22T22:50:46.234Z,16.42
2022-11-22T22:53:13.465Z,18.00
2022-11-22T22:55:40.363Z,16.55
2022-11-22T22:58:11.605Z,17.52
2022-11-22T23:00:38.956Z,17.30
2022-11-22T23:03:05.709Z,17.38
2022-11-22T23:05:32.490Z,16.27
2022-11-22T23:07:59.338Z,17.20
2022-11-22T23:10:26.157Z,20.05
2022-11-22T23:12:52.923Z,19.63
2022-11-22T23:15:33.205Z,22.52
2022-11-22T23:18:06.458Z,16.92
2022-11-22T23:20:33.669Z,17.65
2022-11-22T23:23:00.385Z,15.18
2022-11-22T23:25:27.151Z,19.80
2022-11-22T23:27:53.950Z,16.80
2022-11-22T23:30:20.654Z,18.23
2022-11-22T23:32:47.376Z,17.67
2022-11-22T23:35:14.166Z,17.00
2022-11-22T23:37:40.868Z,17.48
2022-11-22T23:40:08.119Z,17.85
2022-11-22T23:42:34.909Z,14.00
2022-11-22T23:45:01.659Z,18.55
2022-11-22T23:47:28.405Z,16.20
2022-11-22T23:49:55.157Z,17.02
2022-11-22T23:52:21.884Z,17.45
2022-11-22T23:54:48.656Z,15.57
2022-11-22T23:57:15.415Z,17.05
2022-11-22T23:59:42.116Z,19.92
